sensor_id;sensor_type;location;lat;lon;timestamp;P1;durP1;ratioP1;P2;durP2;ratioP2
5412;SDS011;2729;50.056;8.678;2023-05-10T00:02:07;6.37;;;1.10;;
5412;SDS011;2729;50.056;8.678;2023-05-10T00:04:33;0.80;;;0.80;;
5412;SDS011;2729;50.056;8.678;2023-05-10T00:06:59;0.83;;;0.83;;
5412;SDS011;2729;50.056;8.678;2023-05-10T00:09:25;0.77;;;0.77;;
5412;SDS011;2729;50.056;8.678;2023-05-10T00:11:51;1.10;;;1.10;;
5412;SDS011;2729;50.056;8.678;2023-05-10T00:14:17;3.17;;;0.80;;
5412;SDS011;2729;50.056;8.678;2023-05-10T00:16:43;0.80;;;0.80;;
5412;SDS011;2729;50.056;8.678;2023-05-10T00:19:09;14.20;;;0.90;;
5412;SDS011;2729;50.056;8.678;2023-05-10T00:21:35;1.00;;;1.00;;
5412;SDS011;2729;50.056;8.678;2023-05-10T00:24:02;0.97;;;0.60;;
5412;SDS011;2729;50.056;8.678;2023-05-10T00:26:28;0.63;;;0.63;;
5412;SDS011;2729;50.056;8.678;2023-05-10T00:28:55;3.17;;;0.80;;
5412;SDS011;2729;50.056;8.678;2023-05-10T00:31:22;0.60;;;0.60;;
5412;SDS011;2729;50.056;8.678;2023-05-10T00:33:48;3.53;;;0.70;;
5412;SDS011;2729;50.056;8.678;2023-05-10T00:36:14;0.60;;;0.60;;
5412;SDS011;2729;50.056;8.678;2023-05-10T00:38:40;7.20;;;0.70;;
5412;SDS011;2729;50.056;8.678;2023-05-10T00:41:06;1.10;;;0.70;;
5412;SDS011;2729;50.056;8.678;2023-05-10T00:43:34;0.63;;;0.50;;
5412;SDS011;2729;50.056;8.678;2023-05-10T00:46:00;1.20;;;0.63;;
5412;SDS011;2729;50.056;8.678;2023-05-10T00:48:26;3.23;;;0.70;;
5412;SDS011;2729;50.056;8.678;2023-05-10T00:50:54;0.70;;;0.70;;
5412;SDS011;2729;50.056;8.678;2023-05-10T00:53:21;0.60;;;0.60;;
5412;SDS011;2729;50.056;8.678;2023-05-10T00:55:47;0.70;;;0.70;;
5412;SDS011;2729;50.056;8.678;2023-05-10T00:58:13;0.50;;;0.50;;
5412;SDS011;2729;50.056;8.678;2023-05-10T01:00:41;0.60;;;0.60;;
5412;SDS011;2729;50.056;8.678;2023-05-10T01:03:07;0.70;;;0.70;;
5412;SDS011;2729;50.056;8.678;2023-05-10T01:05:33;2.00;;;0.70;;
5412;SDS011;2729;50.056;8.678;2023-05-10T01:07:59;0.60;;;0.50;;
5412;SDS011;2729;50.056;8.678;2023-05-10T01:10:25;0.60;;;0.60;;
5412;SDS011;2729;50.056;8.678;2023-05-10T01:12:51;0.60;;;0.60;;
5412;SDS011;2729;50.056;8.678;2023-05-10T01:15:17;0.70;;;0.70;;
5412;SDS011;2729;50.056;8.678;2023-05-10T01:17:45;0.60;;;0.60;;
5412;SDS011;2729;50.056;8.678;2023-05-10T01:20:12;0.67;;;0.63;;
5412;SDS011;2729;50.056;8.678;2023-05-10T01:22:56;0.60;;;0.60;;
5412;SDS011;2729;50.056;8.678;2023-05-10T01:25:37;0.53;;;0.53;;
5412;SDS011;2729;50.056;8.678;2023-05-10T01:28:25;0.60;;;0.60;;
5412;SDS011;2729;50.056;8.678;2023-05-10T01:33:59;0.60;;;0.60;;
5412;SDS011;2729;50.056;8.678;2023-05-10T01:36:32;0.57;;;0.57;;
5412;SDS011;2729;50.056;8.678;2023-05-10T01:41:49;0.70;;;0.70;;
5412;SDS011;2729;50.056;8.678;2023-05-10T01:44:30;0.80;;;0.80;;
5412;SDS011;2729;50.056;8.678;2023-05-10T01:46:58;0.70;;;0.70;;
5412;SDS011;2729;50.056;8.678;2023-05-10T01:49:31;0.70;;;0.70;;
5412;SDS011;2729;50.056;8.678;2023-05-10T01:52:06;1.03;;;0.60;;
5412;SDS011;2729;50.056;8.678;2023-05-10T01:54:35;0.67;;;0.67;;
5412;SDS011;2729;50.056;8.678;2023-05-10T01:57:05;1.63;;;0.63;;
5412;SDS011;2729;50.056;8.678;2023-05-10T01:59:36;0.60;;;0.60;;
5412;SDS011;2729;50.056;8.678;2023-05-10T02:02:07;0.70;;;0.70;;
5412;SDS011;2729;50.056;8.678;2023-05-10T02:04:37;0.67;;;0.67;;
5412;SDS011;2729;50.056;8.678;2023-05-10T02:07:05;2.20;;;0.70;;
5412;SDS011;2729;50.056;8.678;2023-05-10T02:09:33;0.60;;;0.60;;
5412;SDS011;2729;50.056;8.678;2023-05-10T02:12:01;3.43;;;0.70;;
5412;SDS011;2729;50.056;8.678;2023-05-10T02:14:34;0.77;;;0.77;;
5412;SDS011;2729;50.056;8.678;2023-05-10T02:17:05;0.60;;;0.60;;
5412;SDS011;2729;50.056;8.678;2023-05-10T02:19:33;0.70;;;0.70;;
5412;SDS011;2729;50.056;8.678;2023-05-10T02:22:00;0.70;;;0.70;;
5412;SDS011;2729;50.056;8.678;2023-05-10T02:24:27;0.60;;;0.60;;
5412;SDS011;2729;50.056;8.678;2023-05-10T02:26:54;0.80;;;0.80;;
5412;SDS011;2729;50.056;8.678;2023-05-10T02:29:22;3.37;;;0.70;;
5412;SDS011;2729;50.056;8.678;2023-05-10T02:31:54;0.70;;;0.70;;
5412;SDS011;2729;50.056;8.678;2023-05-10T02:34:21;0.70;;;0.70;;
5412;SDS011;2729;50.056;8.678;2023-05-10T02:36:47;0.70;;;0.70;;
5412;SDS011;2729;50.056;8.678;2023-05-10T02:39:16;3.03;;;0.60;;
5412;SDS011;2729;50.056;8.678;2023-05-10T02:41:44;0.60;;;0.60;;
5412;SDS011;2729;50.056;8.678;2023-05-10T02:44:13;0.60;;;0.60;;
5412;SDS011;2729;50.056;8.678;2023-05-10T02:46:40;0.63;;;0.63;;
5412;SDS011;2729;50.056;8.678;2023-05-10T02:49:07;0.70;;;0.70;;
5412;SDS011;2729;50.056;8.678;2023-05-10T02:51:34;0.70;;;0.70;;
5412;SDS011;2729;50.056;8.678;2023-05-10T02:54:07;0.60;;;0.60;;
5412;SDS011;2729;50.056;8.678;2023-05-10T02:56:40;0.63;;;0.63;;
5412;SDS011;2729;50.056;8.678;2023-05-10T02:59:08;0.70;;;0.70;;
5412;SDS011;2729;50.056;8.678;2023-05-10T03:01:34;0.60;;;0.60;;
5412;SDS011;2729;50.056;8.678;2023-05-10T03:04:00;0.90;;;0.90;;
5412;SDS011;2729;50.056;8.678;2023-05-10T03:06:26;0.60;;;0.60;;
5412;SDS011;2729;50.056;8.678;2023-05-10T03:08:52;0.70;;;0.70;;
5412;SDS011;2729;50.056;8.678;2023-05-10T03:17:29;0.80;;;0.80;;
5412;SDS011;2729;50.056;8.678;2023-05-10T03:20:06;0.80;;;0.80;;
5412;SDS011;2729;50.056;8.678;2023-05-10T03:22:37;0.67;;;0.67;;
5412;SDS011;2729;50.056;8.678;2023-05-10T03:25:10;2.10;;;0.87;;
5412;SDS011;2729;50.056;8.678;2023-05-10T03:27:39;1.03;;;0.77;;
5412;SDS011;2729;50.056;8.678;2023-05-10T03:30:07;2.83;;;0.80;;
5412;SDS011;2729;50.056;8.678;2023-05-10T03:32:35;1.23;;;0.83;;
5412;SDS011;2729;50.056;8.678;2023-05-10T03:35:09;0.80;;;0.80;;
5412;SDS011;2729;50.056;8.678;2023-05-10T03:37:37;0.80;;;0.80;;
5412;SDS011;2729;50.056;8.678;2023-05-10T03:40:03;1.00;;;1.00;;
5412;SDS011;2729;50.056;8.678;2023-05-10T03:42:33;0.80;;;0.80;;
5412;SDS011;2729;50.056;8.678;2023-05-10T03:44:58;0.90;;;0.90;;
5412;SDS011;2729;50.056;8.678;2023-05-10T03:47:24;0.80;;;0.80;;
5412;SDS011;2729;50.056;8.678;2023-05-10T03:49:51;2.03;;;0.70;;
5412;SDS011;2729;50.056;8.678;2023-05-10T03:52:17;0.83;;;0.83;;
5412;SDS011;2729;50.056;8.678;2023-05-10T03:54:44;0.60;;;0.60;;
5412;SDS011;2729;50.056;8.678;2023-05-10T03:57:10;0.70;;;0.70;;
5412;SDS011;2729;50.056;8.678;2023-05-10T03:59:36;0.97;;;0.97;;
5412;SDS011;2729;50.056;8.678;2023-05-10T04:02:01;0.90;;;0.90;;
5412;SDS011;2729;50.056;8.678;2023-05-10T04:04:29;0.73;;;0.73;;
5412;SDS011;2729;50.056;8.678;2023-05-10T04:06:55;0.70;;;0.70;;
5412;SDS011;2729;50.056;8.678;2023-05-10T04:09:21;1.10;;;1.10;;
5412;SDS011;2729;50.056;8.678;2023-05-10T04:11:47;0.80;;;0.80;;
5412;SDS011;2729;50.056;8.678;2023-05-10T04:14:12;0.70;;;0.70;;
5412;SDS011;2729;50.056;8.678;2023-05-10T04:16:38;0.77;;;0.77;;
5412;SDS011;2729;50.056;8.678;2023-05-10T04:19:04;1.27;;;1.07;;
5412;SDS011;2729;50.056;8.678;2023-05-10T04:21:30;3.53;;;0.90;;
5412;SDS011;2729;50.056;8.678;2023-05-10T04:23:56;1.23;;;1.00;;
5412;SDS011;2729;50.056;8.678;2023-05-10T04:26:22;1.00;;;1.00;;
5412;SDS011;2729;50.056;8.678;2023-05-10T04:28:48;1.63;;;0.70;;
5412;SDS011;2729;50.056;8.678;2023-05-10T04:31:14;1.00;;;1.00;;
5412;SDS011;2729;50.056;8.678;2023-05-10T04:33:40;0.73;;;0.73;;
5412;SDS011;2729;50.056;8.678;2023-05-10T04:36:06;0.93;;;0.93;;
5412;SDS011;2729;50.056;8.678;2023-05-10T04:38:32;0.93;;;0.93;;
5412;SDS011;2729;50.056;8.678;2023-05-10T04:41:05;0.73;;;0.73;;
5412;SDS011;2729;50.056;8.678;2023-05-10T04:43:35;0.87;;;0.87;;
5412;SDS011;2729;50.056;8.678;2023-05-10T04:46:01;0.70;;;0.70;;
5412;SDS011;2729;50.056;8.678;2023-05-10T04:48:28;4.40;;;0.90;;
5412;SDS011;2729;50.056;8.678;2023-05-10T04:50:54;1.00;;;1.00;;
5412;SDS011;2729;50.056;8.678;2023-05-10T04:53:19;1.77;;;1.10;;
5412;SDS011;2729;50.056;8.678;2023-05-10T04:55:45;0.90;;;0.90;;
5412;SDS011;2729;50.056;8.678;2023-05-10T04:58:12;1.23;;;1.13;;
5412;SDS011;2729;50.056;8.678;2023-05-10T05:00:38;1.90;;;1.10;;
5412;SDS011;2729;50.056;8.678;2023-05-10T05:03:04;1.13;;;1.03;;
5412;SDS011;2729;50.056;8.678;2023-05-10T05:05:30;1.00;;;1.00;;
5412;SDS011;2729;50.056;8.678;2023-05-10T05:07:56;0.80;;;0.80;;
5412;SDS011;2729;50.056;8.678;2023-05-10T05:10:22;6.10;;;1.10;;
5412;SDS011;2729;50.056;8.678;2023-05-10T05:12:48;1.10;;;1.10;;
5412;SDS011;2729;50.056;8.678;2023-05-10T05:15:14;1.17;;;1.07;;
5412;SDS011;2729;50.056;8.678;2023-05-10T05:17:42;3.13;;;1.10;;
5412;SDS011;2729;50.056;8.678;2023-05-10T05:20:09;1.77;;;1.20;;
5412;SDS011;2729;50.056;8.678;2023-05-10T05:22:35;1.00;;;1.00;;
5412;SDS011;2729;50.056;8.678;2023-05-10T05:25:02;0.90;;;0.90;;
5412;SDS011;2729;50.056;8.678;2023-05-10T05:27:28;2.20;;;1.20;;
5412;SDS011;2729;50.056;8.678;2023-05-10T05:29:55;7.10;;;1.17;;
5412;SDS011;2729;50.056;8.678;2023-05-10T05:32:21;8.20;;;1.20;;
5412;SDS011;2729;50.056;8.678;2023-05-10T05:34:48;1.30;;;1.20;;
5412;SDS011;2729;50.056;8.678;2023-05-10T05:37:14;1.00;;;1.00;;
5412;SDS011;2729;50.056;8.678;2023-05-10T05:39:41;1.37;;;1.27;;
5412;SDS011;2729;50.056;8.678;2023-05-10T05:42:08;2.87;;;1.50;;
5412;SDS011;2729;50.056;8.678;2023-05-10T05:44:35;1.37;;;1.27;;
5412;SDS011;2729;50.056;8.678;2023-05-10T05:47:01;1.30;;;1.30;;
5412;SDS011;2729;50.056;8.678;2023-05-10T05:49:26;1.00;;;1.00;;
5412;SDS011;2729;50.056;8.678;2023-05-10T05:51:52;4.63;;;1.40;;
5412;SDS011;2729;50.056;8.678;2023-05-10T05:54:18;2.00;;;1.37;;
5412;SDS011;2729;50.056;8.678;2023-05-10T05:56:44;1.10;;;1.10;;
5412;SDS011;2729;50.056;8.678;2023-05-10T05:59:10;1.27;;;1.20;;
5412;SDS011;2729;50.056;8.678;2023-05-10T06:01:37;1.17;;;1.17;;
5412;SDS011;2729;50.056;8.678;2023-05-10T06:04:03;1.30;;;1.30;;
5412;SDS011;2729;50.056;8.678;2023-05-10T06:06:29;1.50;;;1.40;;
5412;SDS011;2729;50.056;8.678;2023-05-10T06:08:55;4.20;;;1.40;;
5412;SDS011;2729;50.056;8.678;2023-05-10T06:11:20;1.30;;;1.20;;
5412;SDS011;2729;50.056;8.678;2023-05-10T06:13:47;1.27;;;1.27;;
5412;SDS011;2729;50.056;8.678;2023-05-10T06:16:13;1.30;;;1.23;;
5412;SDS011;2729;50.056;8.678;2023-05-10T06:18:39;1.50;;;1.40;;
5412;SDS011;2729;50.056;8.678;2023-05-10T06:21:05;3.47;;;1.70;;
5412;SDS011;2729;50.056;8.678;2023-05-10T06:23:31;1.27;;;1.20;;
5412;SDS011;2729;50.056;8.678;2023-05-10T06:25:57;1.43;;;1.33;;
5412;SDS011;2729;50.056;8.678;2023-05-10T06:28:23;3.20;;;1.30;;
5412;SDS011;2729;50.056;8.678;2023-05-10T06:30:48;1.40;;;1.40;;
5412;SDS011;2729;50.056;8.678;2023-05-10T06:33:14;2.93;;;1.57;;
5412;SDS011;2729;50.056;8.678;2023-05-10T06:35:41;1.30;;;1.30;;
5412;SDS011;2729;50.056;8.678;2023-05-10T06:38:07;2.90;;;1.47;;
5412;SDS011;2729;50.056;8.678;2023-05-10T06:40:33;6.90;;;1.87;;
5412;SDS011;2729;50.056;8.678;2023-05-10T06:42:59;3.00;;;1.27;;
5412;SDS011;2729;50.056;8.678;2023-05-10T06:45:25;4.97;;;1.33;;
5412;SDS011;2729;50.056;8.678;2023-05-10T06:47:51;4.73;;;1.70;;
5412;SDS011;2729;50.056;8.678;2023-05-10T06:50:17;1.90;;;1.80;;
5412;SDS011;2729;50.056;8.678;2023-05-10T06:52:43;7.30;;;1.50;;
5412;SDS011;2729;50.056;8.678;2023-05-10T06:55:09;1.60;;;1.50;;
5412;SDS011;2729;50.056;8.678;2023-05-10T06:57:36;1.60;;;1.50;;
5412;SDS011;2729;50.056;8.678;2023-05-10T07:00:02;2.77;;;1.50;;
5412;SDS011;2729;50.056;8.678;2023-05-10T07:02:31;1.73;;;1.47;;
5412;SDS011;2729;50.056;8.678;2023-05-10T07:04:57;4.43;;;1.43;;
5412;SDS011;2729;50.056;8.678;2023-05-10T07:07:23;3.57;;;1.77;;
5412;SDS011;2729;50.056;8.678;2023-05-10T07:09:49;1.57;;;1.43;;
5412;SDS011;2729;50.056;8.678;2023-05-10T07:12:15;1.40;;;1.40;;
5412;SDS011;2729;50.056;8.678;2023-05-10T07:14:41;1.50;;;1.40;;
5412;SDS011;2729;50.056;8.678;2023-05-10T07:17:07;1.60;;;1.50;;
5412;SDS011;2729;50.056;8.678;2023-05-10T07:19:33;3.10;;;1.37;;
5412;SDS011;2729;50.056;8.678;2023-05-10T07:21:59;1.73;;;1.43;;
5412;SDS011;2729;50.056;8.678;2023-05-10T07:24:25;2.70;;;1.60;;
5412;SDS011;2729;50.056;8.678;2023-05-10T07:26:51;1.73;;;1.30;;
5412;SDS011;2729;50.056;8.678;2023-05-10T07:29:17;1.87;;;1.77;;
5412;SDS011;2729;50.056;8.678;2023-05-10T07:31:43;1.73;;;1.40;;
5412;SDS011;2729;50.056;8.678;2023-05-10T07:34:09;2.40;;;1.70;;
5412;SDS011;2729;50.056;8.678;2023-05-10T07:36:35;5.80;;;1.30;;
5412;SDS011;2729;50.056;8.678;2023-05-10T07:39:01;5.40;;;1.60;;
5412;SDS011;2729;50.056;8.678;2023-05-10T07:41:27;2.07;;;1.50;;
5412;SDS011;2729;50.056;8.678;2023-05-10T07:43:53;7.33;;;1.80;;
5412;SDS011;2729;50.056;8.678;2023-05-10T07:46:19;4.00;;;1.80;;
5412;SDS011;2729;50.056;8.678;2023-05-10T07:48:45;1.50;;;1.50;;
5412;SDS011;2729;50.056;8.678;2023-05-10T07:51:11;2.73;;;1.57;;
5412;SDS011;2729;50.056;8.678;2023-05-10T07:53:37;2.13;;;1.93;;
5412;SDS011;2729;50.056;8.678;2023-05-10T07:56:19;1.63;;;1.50;;
5412;SDS011;2729;50.056;8.678;2023-05-10T07:58:55;1.87;;;1.40;;
5412;SDS011;2729;50.056;8.678;2023-05-10T08:01:22;3.37;;;1.77;;
5412;SDS011;2729;50.056;8.678;2023-05-10T08:03:48;9.40;;;2.13;;
5412;SDS011;2729;50.056;8.678;2023-05-10T08:06:16;3.53;;;1.60;;
5412;SDS011;2729;50.056;8.678;2023-05-10T08:08:43;1.67;;;1.57;;
5412;SDS011;2729;50.056;8.678;2023-05-10T08:11:11;1.43;;;1.33;;
5412;SDS011;2729;50.056;8.678;2023-05-10T08:13:36;8.20;;;1.60;;
5412;SDS011;2729;50.056;8.678;2023-05-10T08:16:02;1.60;;;1.50;;
5412;SDS011;2729;50.056;8.678;2023-05-10T08:18:28;4.47;;;1.80;;
5412;SDS011;2729;50.056;8.678;2023-05-10T08:20:54;5.40;;;1.87;;
5412;SDS011;2729;50.056;8.678;2023-05-10T08:23:20;1.83;;;1.57;;
5412;SDS011;2729;50.056;8.678;2023-05-10T08:25:46;1.80;;;1.33;;
5412;SDS011;2729;50.056;8.678;2023-05-10T08:28:12;4.73;;;2.10;;
5412;SDS011;2729;50.056;8.678;2023-05-10T08:30:38;1.90;;;1.73;;
5412;SDS011;2729;50.056;8.678;2023-05-10T08:33:04;1.50;;;1.50;;
5412;SDS011;2729;50.056;8.678;2023-05-10T08:35:30;2.70;;;1.80;;
5412;SDS011;2729;50.056;8.678;2023-05-10T08:37:57;1.70;;;1.60;;
5412;SDS011;2729;50.056;8.678;2023-05-10T08:40:22;3.90;;;1.40;;
5412;SDS011;2729;50.056;8.678;2023-05-10T08:42:51;1.70;;;1.40;;
5412;SDS011;2729;50.056;8.678;2023-05-10T08:45:23;1.63;;;1.53;;
5412;SDS011;2729;50.056;8.678;2023-05-10T08:47:50;1.87;;;1.60;;
5412;SDS011;2729;50.056;8.678;2023-05-10T08:50:18;3.60;;;1.73;;
5412;SDS011;2729;50.056;8.678;2023-05-10T08:52:45;4.53;;;1.57;;
5412;SDS011;2729;50.056;8.678;2023-05-10T08:55:14;1.53;;;1.43;;
5412;SDS011;2729;50.056;8.678;2023-05-10T08:57:41;1.20;;;1.20;;
5412;SDS011;2729;50.056;8.678;2023-05-10T09:00:07;2.50;;;1.93;;
5412;SDS011;2729;50.056;8.678;2023-05-10T09:02:34;4.60;;;1.73;;
5412;SDS011;2729;50.056;8.678;2023-05-10T09:05:02;2.77;;;1.40;;
5412;SDS011;2729;50.056;8.678;2023-05-10T09:07:30;1.60;;;1.50;;
5412;SDS011;2729;50.056;8.678;2023-05-10T09:09:56;1.20;;;1.20;;
5412;SDS011;2729;50.056;8.678;2023-05-10T09:12:23;2.73;;;1.47;;
5412;SDS011;2729;50.056;8.678;2023-05-10T09:14:49;1.40;;;1.30;;
5412;SDS011;2729;50.056;8.678;2023-05-10T09:17:17;1.63;;;1.53;;
5412;SDS011;2729;50.056;8.678;2023-05-10T09:19:44;3.70;;;2.50;;
5412;SDS011;2729;50.056;8.678;2023-05-10T09:22:10;1.87;;;1.77;;
5412;SDS011;2729;50.056;8.678;2023-05-10T09:24:36;2.07;;;1.57;;
5412;SDS011;2729;50.056;8.678;2023-05-10T09:27:07;1.63;;;1.53;;
5412;SDS011;2729;50.056;8.678;2023-05-10T09:29:41;4.70;;;1.10;;
5412;SDS011;2729;50.056;8.678;2023-05-10T09:32:08;1.40;;;1.40;;
5412;SDS011;2729;50.056;8.678;2023-05-10T09:34:34;1.50;;;1.37;;
5412;SDS011;2729;50.056;8.678;2023-05-10T09:37:01;1.37;;;1.30;;
5412;SDS011;2729;50.056;8.678;2023-05-10T09:39:35;1.70;;;1.60;;
5412;SDS011;2729;50.056;8.678;2023-05-10T09:42:03;1.60;;;1.50;;
5412;SDS011;2729;50.056;8.678;2023-05-10T09:44:32;2.77;;;1.60;;
5412;SDS011;2729;50.056;8.678;2023-05-10T09:46:59;3.53;;;1.50;;
5412;SDS011;2729;50.056;8.678;2023-05-10T09:49:25;1.43;;;1.40;;
5412;SDS011;2729;50.056;8.678;2023-05-10T09:52:02;5.70;;;1.33;;
5412;SDS011;2729;50.056;8.678;2023-05-10T09:54:30;4.23;;;1.77;;
5412;SDS011;2729;50.056;8.678;2023-05-10T09:56:56;1.30;;;1.20;;
5412;SDS011;2729;50.056;8.678;2023-05-10T09:59:23;2.03;;;1.83;;
5412;SDS011;2729;50.056;8.678;2023-05-10T10:01:51;2.23;;;1.40;;
5412;SDS011;2729;50.056;8.678;2023-05-10T10:04:19;3.53;;;1.50;;
5412;SDS011;2729;50.056;8.678;2023-05-10T10:06:46;1.50;;;1.40;;
5412;SDS011;2729;50.056;8.678;2023-05-10T10:09:12;2.17;;;1.40;;
5412;SDS011;2729;50.056;8.678;2023-05-10T10:11:39;1.83;;;1.67;;
5412;SDS011;2729;50.056;8.678;2023-05-10T10:14:06;1.77;;;1.67;;
5412;SDS011;2729;50.056;8.678;2023-05-10T10:16:32;1.30;;;1.30;;
5412;SDS011;2729;50.056;8.678;2023-05-10T10:18:58;2.97;;;1.30;;
5412;SDS011;2729;50.056;8.678;2023-05-10T10:21:24;1.37;;;1.20;;
5412;SDS011;2729;50.056;8.678;2023-05-10T10:23:51;1.60;;;1.40;;
5412;SDS011;2729;50.056;8.678;2023-05-10T10:26:17;1.40;;;1.30;;
5412;SDS011;2729;50.056;8.678;2023-05-10T10:28:48;2.77;;;1.33;;
5412;SDS011;2729;50.056;8.678;2023-05-10T10:31:26;2.73;;;1.70;;
5412;SDS011;2729;50.056;8.678;2023-05-10T10:34:06;1.10;;;1.10;;
5412;SDS011;2729;50.056;8.678;2023-05-10T10:36:47;1.33;;;1.23;;
5412;SDS011;2729;50.056;8.678;2023-05-10T10:39:13;1.67;;;1.47;;
5412;SDS011;2729;50.056;8.678;2023-05-10T10:41:49;1.43;;;1.30;;
5412;SDS011;2729;50.056;8.678;2023-05-10T10:49:26;5.30;;;1.20;;
5412;SDS011;2729;50.056;8.678;2023-05-10T10:54:58;4.90;;;1.57;;
5412;SDS011;2729;50.056;8.678;2023-05-10T11:02:46;1.63;;;1.10;;
5412;SDS011;2729;50.056;8.678;2023-05-10T11:05:24;0.93;;;0.93;;
5412;SDS011;2729;50.056;8.678;2023-05-10T11:10:37;0.97;;;0.97;;
5412;SDS011;2729;50.056;8.678;2023-05-10T11:13:07;0.93;;;0.93;;
5412;SDS011;2729;50.056;8.678;2023-05-10T11:15:35;0.70;;;0.70;;
5412;SDS011;2729;50.056;8.678;2023-05-10T11:18:16;0.80;;;0.80;;
5412;SDS011;2729;50.056;8.678;2023-05-10T11:20:45;1.17;;;0.90;;
5412;SDS011;2729;50.056;8.678;2023-05-10T11:23:16;1.10;;;1.00;;
5412;SDS011;2729;50.056;8.678;2023-05-10T11:25:44;1.37;;;1.27;;
5412;SDS011;2729;50.056;8.678;2023-05-10T11:28:11;0.93;;;0.93;;
5412;SDS011;2729;50.056;8.678;2023-05-10T11:30:38;1.90;;;1.27;;
5412;SDS011;2729;50.056;8.678;2023-05-10T11:33:05;1.00;;;1.00;;
5412;SDS011;2729;50.056;8.678;2023-05-10T11:35:38;1.27;;;1.13;;
5412;SDS011;2729;50.056;8.678;2023-05-10T11:38:09;1.30;;;1.20;;
5412;SDS011;2729;50.056;8.678;2023-05-10T11:40:36;6.43;;;1.10;;
5412;SDS011;2729;50.056;8.678;2023-05-10T11:43:03;2.77;;;1.20;;
5412;SDS011;2729;50.056;8.678;2023-05-10T11:45:32;1.37;;;1.30;;
5412;SDS011;2729;50.056;8.678;2023-05-10T11:47:59;1.40;;;0.90;;
5412;SDS011;2729;50.056;8.678;2023-05-10T11:50:25;1.83;;;1.10;;
5412;SDS011;2729;50.056;8.678;2023-05-10T11:52:52;1.40;;;1.30;;
5412;SDS011;2729;50.056;8.678;2023-05-10T11:55:19;1.27;;;1.17;;
5412;SDS011;2729;50.056;8.678;2023-05-10T11:57:45;1.77;;;1.03;;
5412;SDS011;2729;50.056;8.678;2023-05-10T12:00:12;2.97;;;1.17;;
5412;SDS011;2729;50.056;8.678;2023-05-10T12:02:41;1.07;;;1.07;;
5412;SDS011;2729;50.056;8.678;2023-05-10T12:05:07;1.00;;;1.00;;
5412;SDS011;2729;50.056;8.678;2023-05-10T12:07:34;1.10;;;1.03;;
5412;SDS011;2729;50.056;8.678;2023-05-10T12:10:04;0.90;;;0.90;;
5412;SDS011;2729;50.056;8.678;2023-05-10T12:12:41;1.10;;;1.10;;
5412;SDS011;2729;50.056;8.678;2023-05-10T12:15:21;1.30;;;1.20;;
5412;SDS011;2729;50.056;8.678;2023-05-10T12:17:49;2.60;;;1.17;;
5412;SDS011;2729;50.056;8.678;2023-05-10T12:20:19;1.30;;;1.20;;
5412;SDS011;2729;50.056;8.678;2023-05-10T12:22:50;1.30;;;1.20;;
5412;SDS011;2729;50.056;8.678;2023-05-10T12:25:18;1.23;;;1.13;;
5412;SDS011;2729;50.056;8.678;2023-05-10T12:27:52;1.13;;;1.13;;
5412;SDS011;2729;50.056;8.678;2023-05-10T12:30:20;1.50;;;1.40;;
5412;SDS011;2729;50.056;8.678;2023-05-10T12:32:50;1.17;;;1.17;;
5412;SDS011;2729;50.056;8.678;2023-05-10T12:35:17;1.10;;;1.10;;
5412;SDS011;2729;50.056;8.678;2023-05-10T12:37:47;2.03;;;1.20;;
5412;SDS011;2729;50.056;8.678;2023-05-10T12:40:13;0.90;;;0.90;;
5412;SDS011;2729;50.056;8.678;2023-05-10T12:42:40;0.90;;;0.90;;
5412;SDS011;2729;50.056;8.678;2023-05-10T12:45:06;2.30;;;1.13;;
5412;SDS011;2729;50.056;8.678;2023-05-10T12:47:33;0.70;;;0.70;;
5412;SDS011;2729;50.056;8.678;2023-05-10T12:49:59;2.67;;;0.90;;
5412;SDS011;2729;50.056;8.678;2023-05-10T12:52:26;0.90;;;0.90;;
5412;SDS011;2729;50.056;8.678;2023-05-10T12:54:53;3.37;;;0.90;;
5412;SDS011;2729;50.056;8.678;2023-05-10T12:57:22;0.70;;;0.70;;
5412;SDS011;2729;50.056;8.678;2023-05-10T12:59:48;0.77;;;0.77;;
5412;SDS011;2729;50.056;8.678;2023-05-10T13:02:14;0.90;;;0.90;;
5412;SDS011;2729;50.056;8.678;2023-05-10T13:04:41;1.00;;;0.90;;
5412;SDS011;2729;50.056;8.678;2023-05-10T13:07:07;0.83;;;0.83;;
5412;SDS011;2729;50.056;8.678;2023-05-10T13:09:33;0.80;;;0.70;;
5412;SDS011;2729;50.056;8.678;2023-05-10T13:12:00;1.10;;;0.70;;
5412;SDS011;2729;50.056;8.678;2023-05-10T13:14:26;0.90;;;0.90;;
5412;SDS011;2729;50.056;8.678;2023-05-10T13:16:52;4.77;;;0.80;;
5412;SDS011;2729;50.056;8.678;2023-05-10T13:19:19;1.67;;;0.80;;
5412;SDS011;2729;50.056;8.678;2023-05-10T13:21:45;0.97;;;0.97;;
5412;SDS011;2729;50.056;8.678;2023-05-10T13:24:11;0.80;;;0.80;;
5412;SDS011;2729;50.056;8.678;2023-05-10T13:26:41;0.87;;;0.87;;
5412;SDS011;2729;50.056;8.678;2023-05-10T13:29:07;0.70;;;0.70;;
5412;SDS011;2729;50.056;8.678;2023-05-10T13:31:33;0.80;;;0.80;;
5412;SDS011;2729;50.056;8.678;2023-05-10T13:34:00;1.10;;;1.10;;
5412;SDS011;2729;50.056;8.678;2023-05-10T13:36:26;0.80;;;0.80;;
5412;SDS011;2729;50.056;8.678;2023-05-10T13:38:52;1.00;;;1.00;;
5412;SDS011;2729;50.056;8.678;2023-05-10T13:41:18;0.87;;;0.87;;
5412;SDS011;2729;50.056;8.678;2023-05-10T13:43:44;1.17;;;1.10;;
5412;SDS011;2729;50.056;8.678;2023-05-10T13:46:10;1.27;;;1.20;;
5412;SDS011;2729;50.056;8.678;2023-05-10T13:48:36;2.20;;;1.10;;
5412;SDS011;2729;50.056;8.678;2023-05-10T13:51:05;1.87;;;0.80;;
5412;SDS011;2729;50.056;8.678;2023-05-10T13:53:31;1.10;;;1.00;;
5412;SDS011;2729;50.056;8.678;2023-05-10T13:55:57;1.63;;;1.03;;
5412;SDS011;2729;50.056;8.678;2023-05-10T13:58:23;0.93;;;0.93;;
5412;SDS011;2729;50.056;8.678;2023-05-10T14:00:49;1.67;;;1.03;;
5412;SDS011;2729;50.056;8.678;2023-05-10T14:03:15;2.83;;;1.00;;
5412;SDS011;2729;50.056;8.678;2023-05-10T14:05:40;0.90;;;0.90;;
5412;SDS011;2729;50.056;8.678;2023-05-10T14:08:06;3.23;;;1.00;;
5412;SDS011;2729;50.056;8.678;2023-05-10T14:10:34;7.40;;;1.27;;
5412;SDS011;2729;50.056;8.678;2023-05-10T14:13:00;7.37;;;1.13;;
5412;SDS011;2729;50.056;8.678;2023-05-10T14:15:26;1.80;;;0.80;;
5412;SDS011;2729;50.056;8.678;2023-05-10T14:17:52;2.30;;;1.00;;
5412;SDS011;2729;50.056;8.678;2023-05-10T14:20:18;8.23;;;1.40;;
5412;SDS011;2729;50.056;8.678;2023-05-10T14:22:44;1.23;;;1.13;;
5412;SDS011;2729;50.056;8.678;2023-05-10T14:25:10;2.93;;;1.00;;
5412;SDS011;2729;50.056;8.678;2023-05-10T14:27:37;1.03;;;1.03;;
5412;SDS011;2729;50.056;8.678;2023-05-10T14:30:03;1.03;;;1.00;;
5412;SDS011;2729;50.056;8.678;2023-05-10T14:32:29;1.30;;;1.03;;
5412;SDS011;2729;50.056;8.678;2023-05-10T14:34:57;1.10;;;1.00;;
5412;SDS011;2729;50.056;8.678;2023-05-10T14:37:23;1.30;;;1.13;;
5412;SDS011;2729;50.056;8.678;2023-05-10T14:39:49;2.90;;;0.80;;
5412;SDS011;2729;50.056;8.678;2023-05-10T14:42:15;0.90;;;0.90;;
5412;SDS011;2729;50.056;8.678;2023-05-10T14:44:41;1.90;;;1.00;;
5412;SDS011;2729;50.056;8.678;2023-05-10T14:47:07;1.00;;;1.00;;
5412;SDS011;2729;50.056;8.678;2023-05-10T14:49:33;0.90;;;0.80;;
5412;SDS011;2729;50.056;8.678;2023-05-10T14:51:59;1.00;;;1.00;;
5412;SDS011;2729;50.056;8.678;2023-05-10T14:54:25;6.97;;;1.00;;
5412;SDS011;2729;50.056;8.678;2023-05-10T14:56:51;1.17;;;1.00;;
5412;SDS011;2729;50.056;8.678;2023-05-10T14:59:17;1.60;;;1.13;;
5412;SDS011;2729;50.056;8.678;2023-05-10T15:01:43;1.37;;;1.10;;
5412;SDS011;2729;50.056;8.678;2023-05-10T15:04:09;0.90;;;0.90;;
5412;SDS011;2729;50.056;8.678;2023-05-10T15:06:35;2.70;;;1.40;;
5412;SDS011;2729;50.056;8.678;2023-05-10T15:09:02;1.80;;;0.97;;
5412;SDS011;2729;50.056;8.678;2023-05-10T15:11:29;0.90;;;0.90;;
5412;SDS011;2729;50.056;8.678;2023-05-10T15:13:55;1.17;;;1.17;;
5412;SDS011;2729;50.056;8.678;2023-05-10T15:16:21;2.73;;;1.07;;
5412;SDS011;2729;50.056;8.678;2023-05-10T15:18:47;1.43;;;1.10;;
5412;SDS011;2729;50.056;8.678;2023-05-10T15:21:13;1.13;;;1.13;;
5412;SDS011;2729;50.056;8.678;2023-05-10T15:23:39;1.47;;;1.17;;
5412;SDS011;2729;50.056;8.678;2023-05-10T15:26:05;0.80;;;0.80;;
5412;SDS011;2729;50.056;8.678;2023-05-10T15:28:31;4.40;;;0.80;;
5412;SDS011;2729;50.056;8.678;2023-05-10T15:30:57;0.90;;;0.90;;
5412;SDS011;2729;50.056;8.678;2023-05-10T15:33:23;3.27;;;1.23;;
5412;SDS011;2729;50.056;8.678;2023-05-10T15:35:50;4.83;;;1.33;;
5412;SDS011;2729;50.056;8.678;2023-05-10T15:38:15;1.17;;;1.17;;
5412;SDS011;2729;50.056;8.678;2023-05-10T15:40:41;1.10;;;1.00;;
5412;SDS011;2729;50.056;8.678;2023-05-10T15:43:07;0.70;;;0.70;;
5412;SDS011;2729;50.056;8.678;2023-05-10T15:45:33;1.30;;;1.20;;